ENVD

Vadsø Airport

Vadsø, Norway
METAR ENVD 132320Z 26018KT 9999 -SHRA SCT032 BKN040 02/M01 Q1019
Observed Flight Rules
Dec-13 @ 23:20 UTC (4 hours ago) Visual Flight Rules
Wind Visibility Clouds Conditions
260° at 18 knots 10,000+ meters
  • Scattered at 3,200' AGL
  • Broken at 4,000' AGL
  • Light Rain
Temperatures Readings
Current 2°C / 36°F
Dewpoint -1°C / 30°F
Humidity 81%
Altimeter 30.09" Hg
Pressure 1019 hPa
Elevation 39
METAR ENVD 132320Z 26018KT 9999 -SHRA SCT032 BKN040 02/M01 Q1019
Observed Flight Rules
Dec-13 @ 23:20 UTC
(4 hours ago)
VFR
Wind Visibility
260° at 18 knots 10,000+ meters
Clouds
  • Scattered at 3,200' AGL
  • Broken at 4,000' AGL
Conditions
  • Light Rain
Temperature Dewpoint
2°C / 36°F -1°C / 30°F
Humidity Altimeter Pressure
81% 30.09" Hg 1019 hPa